sensor_id;sensor_type;location;lat;lon;timestamp;pressure;altitude;pressure_sealevel;temperature;humidity
68807;BME280;55800;54.272;18.558;2023-04-09T00:02:00;101951.84;;;9.30;61.99
68807;BME280;55800;54.272;18.558;2023-04-09T00:04:30;101938.56;;;9.25;63.00
68807;BME280;55800;54.272;18.558;2023-04-09T00:06:59;101947.47;;;9.26;63.10
68807;BME280;55800;54.272;18.558;2023-04-09T00:09:28;101945.66;;;9.28;63.88
68807;BME280;55800;54.272;18.558;2023-04-09T00:11:57;101943.09;;;9.22;63.63
68807;BME280;55800;54.272;18.558;2023-04-09T00:14:27;101942.00;;;9.33;64.96
68807;BME280;55800;54.272;18.558;2023-04-09T00:16:56;101945.59;;;9.31;63.78
68807;BME280;55800;54.272;18.558;2023-04-09T00:19:27;101943.88;;;9.28;63.87
68807;BME280;55800;54.272;18.558;2023-04-09T00:21:56;101944.75;;;9.27;62.54
68807;BME280;55800;54.272;18.558;2023-04-09T00:24:26;101943.94;;;9.24;62.58
68807;BME280;55800;54.272;18.558;2023-04-09T00:26:55;101939.56;;;9.20;64.23
68807;BME280;55800;54.272;18.558;2023-04-09T00:29:24;101937.66;;;9.28;65.66
68807;BME280;55800;54.272;18.558;2023-04-09T00:31:53;101938.56;;;9.25;62.29
68807;BME280;55800;54.272;18.558;2023-04-09T00:34:27;101934.22;;;9.18;62.18
68807;BME280;55800;54.272;18.558;2023-04-09T00:36:56;101945.84;;;9.16;62.78
68807;BME280;55800;54.272;18.558;2023-04-09T00:39:27;101938.69;;;9.16;61.83
68807;BME280;55800;54.272;18.558;2023-04-09T00:41:57;101943.19;;;9.16;62.95
68807;BME280;55800;54.272;18.558;2023-04-09T00:44:26;101944.03;;;9.16;63.07
68807;BME280;55800;54.272;18.558;2023-04-09T00:46:56;101943.13;;;9.19;62.78
68807;BME280;55800;54.272;18.558;2023-04-09T00:49:28;101940.47;;;9.17;61.98
68807;BME280;55800;54.272;18.558;2023-04-09T00:51:57;101942.22;;;9.18;62.35
68807;BME280;55800;54.272;18.558;2023-04-09T00:54:27;101947.53;;;9.21;63.02
68807;BME280;55800;54.272;18.558;2023-04-09T00:56:57;101949.34;;;9.19;63.03
68807;BME280;55800;54.272;18.558;2023-04-09T00:59:28;101947.53;;;9.21;63.66
68807;BME280;55800;54.272;18.558;2023-04-09T01:01:58;101952.03;;;9.18;62.35
68807;BME280;55800;54.272;18.558;2023-04-09T01:04:28;101952.97;;;9.15;61.83
68807;BME280;55800;54.272;18.558;2023-04-09T01:07:02;101950.41;;;9.09;62.27
68807;BME280;55800;54.272;18.558;2023-04-09T01:09:38;101944.16;;;9.09;62.30
68807;BME280;55800;54.272;18.558;2023-04-09T01:12:17;101942.38;;;9.09;61.65
68807;BME280;55800;54.272;18.558;2023-04-09T01:14:58;101937.97;;;9.07;62.29
68807;BME280;55800;54.272;18.558;2023-04-09T01:17:36;101946.91;;;9.04;61.90
68807;BME280;55800;54.272;18.558;2023-04-09T01:20:12;101946.06;;;9.01;62.50
68807;BME280;55800;54.272;18.558;2023-04-09T01:22:58;101948.72;;;9.02;65.26
68807;BME280;55800;54.272;18.558;2023-04-09T01:25:42;101950.47;;;9.02;64.84
68807;BME280;55800;54.272;18.558;2023-04-09T01:28:19;101953.19;;;9.00;63.49
68807;BME280;55800;54.272;18.558;2023-04-09T01:30:58;101942.56;;;8.96;62.73
68807;BME280;55800;54.272;18.558;2023-04-09T01:33:30;101955.88;;;8.97;62.53
68807;BME280;55800;54.272;18.558;2023-04-09T01:36:01;101954.16;;;8.93;63.75
68807;BME280;55800;54.272;18.558;2023-04-09T01:38:34;101945.38;;;8.88;63.35
68807;BME280;55800;54.272;18.558;2023-04-09T01:41:06;101950.63;;;8.91;64.38
68807;BME280;55800;54.272;18.558;2023-04-09T01:43:37;101951.44;;;8.98;64.53
68807;BME280;55800;54.272;18.558;2023-04-09T01:46:07;101954.16;;;8.95;62.73
68807;BME280;55800;54.272;18.558;2023-04-09T01:48:37;101957.78;;;8.89;63.26
68807;BME280;55800;54.272;18.558;2023-04-09T01:51:07;101958.78;;;8.82;63.13
68807;BME280;55800;54.272;18.558;2023-04-09T01:53:37;101959.59;;;8.87;61.88
68807;BME280;55800;54.272;18.558;2023-04-09T01:56:06;101963.16;;;8.88;61.53
68807;BME280;55800;54.272;18.558;2023-04-09T01:58:37;101963.19;;;8.86;61.94
68807;BME280;55800;54.272;18.558;2023-04-09T02:01:11;101962.34;;;8.81;63.44
68807;BME280;55800;54.272;18.558;2023-04-09T02:03:45;101968.56;;;8.82;62.87
68807;BME280;55800;54.272;18.558;2023-04-09T02:06:19;101956.06;;;8.85;61.59
68807;BME280;55800;54.272;18.558;2023-04-09T02:08:53;101965.00;;;8.81;62.28
68807;BME280;55800;54.272;18.558;2023-04-09T02:11:23;101960.63;;;8.77;61.96
68807;BME280;55800;54.272;18.558;2023-04-09T02:13:56;101954.44;;;8.75;61.92
68807;BME280;55800;54.272;18.558;2023-04-09T02:16:26;101950.03;;;8.71;62.85
68807;BME280;55800;54.272;18.558;2023-04-09T02:18:56;101960.66;;;8.74;63.15
68807;BME280;55800;54.272;18.558;2023-04-09T02:21:29;101959.84;;;8.68;62.80
68807;BME280;55800;54.272;18.558;2023-04-09T02:23:59;101962.56;;;8.64;63.75
68807;BME280;55800;54.272;18.558;2023-04-09T02:26:28;101958.06;;;8.68;62.50
68807;BME280;55800;54.272;18.558;2023-04-09T02:29:00;101960.72;;;8.68;63.05
68807;BME280;55800;54.272;18.558;2023-04-09T02:31:29;101957.28;;;8.60;64.19
68807;BME280;55800;54.272;18.558;2023-04-09T02:33:58;101959.91;;;8.64;62.15
68807;BME280;55800;54.272;18.558;2023-04-09T02:36:28;101962.53;;;8.66;61.99
68807;BME280;55800;54.272;18.558;2023-04-09T02:38:57;101966.13;;;8.65;61.79
68807;BME280;55800;54.272;18.558;2023-04-09T02:41:27;101963.50;;;8.60;61.84
68807;BME280;55800;54.272;18.558;2023-04-09T02:43:56;101967.13;;;8.56;61.74
68807;BME280;55800;54.272;18.558;2023-04-09T02:46:27;101968.00;;;8.55;61.90
68807;BME280;55800;54.272;18.558;2023-04-09T02:48:57;101963.50;;;8.59;61.92
68807;BME280;55800;54.272;18.558;2023-04-09T02:51:26;101965.31;;;8.57;62.50
68807;BME280;55800;54.272;18.558;2023-04-09T02:53:55;101958.22;;;8.56;62.22
68807;BME280;55800;54.272;18.558;2023-04-09T02:56:25;101964.44;;;8.55;62.18
68807;BME280;55800;54.272;18.558;2023-04-09T02:58:54;101962.66;;;8.57;61.83
68807;BME280;55800;54.272;18.558;2023-04-09T03:01:24;101968.88;;;8.57;61.69
68807;BME280;55800;54.272;18.558;2023-04-09T03:03:54;101958.16;;;8.59;61.92
68807;BME280;55800;54.272;18.558;2023-04-09T03:06:24;101962.66;;;8.57;61.73
68807;BME280;55800;54.272;18.558;2023-04-09T03:08:53;101956.47;;;8.53;62.06
68807;BME280;55800;54.272;18.558;2023-04-09T03:11:23;101963.59;;;8.53;61.57
68807;BME280;55800;54.272;18.558;2023-04-09T03:13:52;101951.19;;;8.52;61.75
68807;BME280;55800;54.272;18.558;2023-04-09T03:16:24;101955.63;;;8.51;61.65
68807;BME280;55800;54.272;18.558;2023-04-09T03:18:55;101950.28;;;8.51;61.61
68807;BME280;55800;54.272;18.558;2023-04-09T03:21:24;101944.09;;;8.49;61.57
68807;BME280;55800;54.272;18.558;2023-04-09T03:23:54;101948.53;;;8.49;61.55
68807;BME280;55800;54.272;18.558;2023-04-09T03:26:24;101938.78;;;8.46;61.63
68807;BME280;55800;54.272;18.558;2023-04-09T03:28:53;101952.13;;;8.46;61.37
68807;BME280;55800;54.272;18.558;2023-04-09T03:31:22;101939.72;;;8.44;61.37
68807;BME280;55800;54.272;18.558;2023-04-09T03:33:51;101946.84;;;8.42;61.17
68807;BME280;55800;54.272;18.558;2023-04-09T03:36:22;101931.78;;;8.39;62.56
68807;BME280;55800;54.272;18.558;2023-04-09T03:38:58;101945.19;;;8.32;64.74
68807;BME280;55800;54.272;18.558;2023-04-09T03:41:32;101947.94;;;8.26;64.80
68807;BME280;55800;54.272;18.558;2023-04-09T03:44:05;101948.81;;;8.22;64.04
68807;BME280;55800;54.272;18.558;2023-04-09T03:46:55;101947.97;;;8.17;66.23
68807;BME280;55800;54.272;18.558;2023-04-09T03:49:25;101947.94;;;8.26;65.89
68807;BME280;55800;54.272;18.558;2023-04-09T03:52:00;101947.97;;;8.20;66.06
68807;BME280;55800;54.272;18.558;2023-04-09T03:54:36;101940.03;;;8.14;66.53
68807;BME280;55800;54.272;18.558;2023-04-09T03:57:12;101933.84;;;8.10;65.26
68807;BME280;55800;54.272;18.558;2023-04-09T03:59:44;101938.34;;;8.05;66.36
68807;BME280;55800;54.272;18.558;2023-04-09T04:02:18;101936.69;;;7.97;66.76
68807;BME280;55800;54.272;18.558;2023-04-09T04:04:57;101931.25;;;8.06;65.58
68807;BME280;55800;54.272;18.558;2023-04-09T04:07:33;101936.63;;;8.00;66.82
68807;BME280;55800;54.272;18.558;2023-04-09T04:10:11;101929.59;;;7.91;66.78
68807;BME280;55800;54.272;18.558;2023-04-09T04:12:45;101932.38;;;7.82;65.87
68807;BME280;55800;54.272;18.558;2023-04-09T04:15:25;101942.22;;;7.75;66.92
68807;BME280;55800;54.272;18.558;2023-04-09T04:17:56;101942.16;;;7.78;66.66
68807;BME280;55800;54.272;18.558;2023-04-09T04:20:42;101948.41;;;7.74;65.90
68807;BME280;55800;54.272;18.558;2023-04-09T04:23:15;101945.75;;;7.77;66.82
68807;BME280;55800;54.272;18.558;2023-04-09T04:25:51;101947.56;;;7.74;65.97
68807;BME280;55800;54.272;18.558;2023-04-09T04:28:28;101944.94;;;7.66;66.01
68807;BME280;55800;54.272;18.558;2023-04-09T04:30:58;101952.91;;;7.71;67.52
68807;BME280;55800;54.272;18.558;2023-04-09T04:33:30;101952.09;;;7.63;66.47
68807;BME280;55800;54.272;18.558;2023-04-09T04:36:07;101945.94;;;7.56;66.97
68807;BME280;55800;54.272;18.558;2023-04-09T04:38:42;101952.13;;;7.58;65.40
68807;BME280;55800;54.272;18.558;2023-04-09T04:41:17;101953.94;;;7.55;65.96
68807;BME280;55800;54.272;18.558;2023-04-09T04:43:55;101951.25;;;7.53;65.33
68807;BME280;55800;54.272;18.558;2023-04-09T04:46:25;101948.66;;;7.50;64.74
68807;BME280;55800;54.272;18.558;2023-04-09T04:48:55;101954.81;;;7.51;64.46
68807;BME280;55800;54.272;18.558;2023-04-09T04:51:24;101946.84;;;7.51;64.61
68807;BME280;55800;54.272;18.558;2023-04-09T04:54:11;101948.63;;;7.49;64.09
68807;BME280;55800;54.272;18.558;2023-04-09T04:56:46;101957.50;;;7.51;65.08
68807;BME280;55800;54.272;18.558;2023-04-09T04:59:32;101951.28;;;7.52;65.30
68807;BME280;55800;54.272;18.558;2023-04-09T05:02:04;101953.94;;;7.53;64.13
68807;BME280;55800;54.272;18.558;2023-04-09T05:04:48;101959.28;;;7.52;64.02
68807;BME280;55800;54.272;18.558;2023-04-09T05:07:20;101954.84;;;7.52;64.56
68807;BME280;55800;54.272;18.558;2023-04-09T05:09:54;101957.50;;;7.52;65.85
68807;BME280;55800;54.272;18.558;2023-04-09T05:12:24;101959.25;;;7.53;65.86
68807;BME280;55800;54.272;18.558;2023-04-09T05:14:53;101961.91;;;7.53;66.54
68807;BME280;55800;54.272;18.558;2023-04-09T05:17:24;101958.38;;;7.54;65.04
68807;BME280;55800;54.272;18.558;2023-04-09T05:19:53;101956.59;;;7.53;65.62
68807;BME280;55800;54.272;18.558;2023-04-09T05:22:33;101961.91;;;7.53;65.85
68807;BME280;55800;54.272;18.558;2023-04-09T05:25:06;101958.31;;;7.57;65.69
68807;BME280;55800;54.272;18.558;2023-04-09T05:27:38;101947.69;;;7.56;66.61
68807;BME280;55800;54.272;18.558;2023-04-09T05:30:09;101952.06;;;7.61;65.89
68807;BME280;55800;54.272;18.558;2023-04-09T05:32:39;101954.75;;;7.63;64.86
68807;BME280;55800;54.272;18.558;2023-04-09T05:35:09;101962.75;;;7.60;66.62
68807;BME280;55800;54.272;18.558;2023-04-09T05:37:42;101955.63;;;7.63;67.08
68807;BME280;55800;54.272;18.558;2023-04-09T05:40:13;101951.19;;;7.62;65.48
68807;BME280;55800;54.272;18.558;2023-04-09T05:42:43;101960.97;;;7.63;65.94
68807;BME280;55800;54.272;18.558;2023-04-09T05:45:22;101960.94;;;7.65;66.31
68807;BME280;55800;54.272;18.558;2023-04-09T05:47:53;101956.47;;;7.68;65.61
68807;BME280;55800;54.272;18.558;2023-04-09T05:50:23;101965.31;;;7.70;65.57
68807;BME280;55800;54.272;18.558;2023-04-09T05:52:54;101962.63;;;7.73;65.20
68807;BME280;55800;54.272;18.558;2023-04-09T05:55:32;101956.41;;;7.74;65.99
68807;BME280;55800;54.272;18.558;2023-04-09T05:58:02;101956.38;;;7.77;64.90
68807;BME280;55800;54.272;18.558;2023-04-09T06:00:32;101953.69;;;7.80;65.00
68807;BME280;55800;54.272;18.558;2023-04-09T06:03:03;101959.84;;;7.85;65.51
68807;BME280;55800;54.272;18.558;2023-04-09T06:05:33;101957.19;;;7.88;65.28
68807;BME280;55800;54.272;18.558;2023-04-09T06:08:02;101964.19;;;7.97;65.35
68807;BME280;55800;54.272;18.558;2023-04-09T06:10:33;101954.38;;;8.01;65.98
68807;BME280;55800;54.272;18.558;2023-04-09T06:13:02;101961.31;;;8.15;65.46
68807;BME280;55800;54.272;18.558;2023-04-09T06:15:33;101963.03;;;8.21;65.49
68807;BME280;55800;54.272;18.558;2023-04-09T06:18:03;101961.25;;;8.21;65.32
68807;BME280;55800;54.272;18.558;2023-04-09T06:20:32;101957.69;;;8.27;65.25
68807;BME280;55800;54.272;18.558;2023-04-09T06:23:02;101962.09;;;8.29;65.16
68807;BME280;55800;54.272;18.558;2023-04-09T06:25:33;101962.94;;;8.33;65.45
68807;BME280;55800;54.272;18.558;2023-04-09T06:28:03;101963.66;;;8.47;65.27
68807;BME280;55800;54.272;18.558;2023-04-09T06:30:33;101964.50;;;8.52;65.10
68807;BME280;55800;54.272;18.558;2023-04-09T06:33:03;101958.25;;;8.54;64.72
68807;BME280;55800;54.272;18.558;2023-04-09T06:35:33;101965.31;;;8.58;65.52
68807;BME280;55800;54.272;18.558;2023-04-09T06:38:02;101966.13;;;8.65;65.67
68807;BME280;55800;54.272;18.558;2023-04-09T06:40:33;101969.56;;;8.73;65.03
68807;BME280;55800;54.272;18.558;2023-04-09T06:43:03;101975.69;;;8.81;64.99
68807;BME280;55800;54.272;18.558;2023-04-09T06:45:41;101970.22;;;8.89;65.56
68807;BME280;55800;54.272;18.558;2023-04-09T06:48:11;101974.63;;;8.94;65.33
68807;BME280;55800;54.272;18.558;2023-04-09T06:50:40;101978.97;;;9.00;64.72
68807;BME280;55800;54.272;18.558;2023-04-09T06:53:09;101980.69;;;9.05;65.02
68807;BME280;55800;54.272;18.558;2023-04-09T06:55:40;101981.50;;;9.10;64.59
68807;BME280;55800;54.272;18.558;2023-04-09T06:58:10;101981.47;;;9.13;65.14
68807;BME280;55800;54.272;18.558;2023-04-09T07:00:40;101986.69;;;9.19;64.34
68807;BME280;55800;54.272;18.558;2023-04-09T07:03:09;101985.72;;;9.26;64.77
68807;BME280;55800;54.272;18.558;2023-04-09T07:05:38;101980.34;;;9.28;65.33
68807;BME280;55800;54.272;18.558;2023-04-09T07:08:08;101982.09;;;9.30;65.06
68807;BME280;55800;54.272;18.558;2023-04-09T07:10:40;101990.03;;;9.35;64.53
68807;BME280;55800;54.272;18.558;2023-04-09T07:13:09;101984.63;;;9.38;64.31
68807;BME280;55800;54.272;18.558;2023-04-09T07:15:39;101986.41;;;9.37;64.94
68807;BME280;55800;54.272;18.558;2023-04-09T07:18:09;101989.00;;;9.42;64.39
68807;BME280;55800;54.272;18.558;2023-04-09T07:20:38;101993.41;;;9.48;64.11
68807;BME280;55800;54.272;18.558;2023-04-09T07:23:08;101987.97;;;9.54;63.79
68807;BME280;55800;54.272;18.558;2023-04-09T07:25:37;101990.56;;;9.58;63.41
68807;BME280;55800;54.272;18.558;2023-04-09T07:28:08;101986.94;;;9.62;63.46
68807;BME280;55800;54.272;18.558;2023-04-09T07:30:39;101987.72;;;9.69;63.30
68807;BME280;55800;54.272;18.558;2023-04-09T07:33:08;101993.81;;;9.77;63.15
68807;BME280;55800;54.272;18.558;2023-04-09T07:35:37;101998.22;;;9.78;63.11
68807;BME280;55800;54.272;18.558;2023-04-09T07:38:07;101990.13;;;9.84;63.05
68807;BME280;55800;54.272;18.558;2023-04-09T07:40:36;101983.81;;;9.88;62.99
68807;BME280;55800;54.272;18.558;2023-04-09T07:43:06;101992.63;;;9.93;63.07
68807;BME280;55800;54.272;18.558;2023-04-09T07:45:36;101995.19;;;10.00;62.89
68807;BME280;55800;54.272;18.558;2023-04-09T07:48:06;101993.28;;;10.05;62.86
68807;BME280;55800;54.272;18.558;2023-04-09T07:50:37;101988.75;;;10.13;62.65
68807;BME280;55800;54.272;18.558;2023-04-09T07:53:06;101984.19;;;10.18;62.08
68807;BME280;55800;54.272;18.558;2023-04-09T07:55:35;101981.47;;;10.20;62.50
68807;BME280;55800;54.272;18.558;2023-04-09T07:58:04;101984.06;;;10.26;62.84
68807;BME280;55800;54.272;18.558;2023-04-09T08:00:35;101989.28;;;10.32;62.93
68807;BME280;55800;54.272;18.558;2023-04-09T08:03:05;101991.75;;;10.43;63.05
68807;BME280;55800;54.272;18.558;2023-04-09T08:05:35;101981.72;;;10.54;62.78
68807;BME280;55800;54.272;18.558;2023-04-09T08:08:05;101988.56;;;10.68;62.68
68807;BME280;55800;54.272;18.558;2023-04-09T08:10:35;101991.84;;;10.79;62.40
68807;BME280;55800;54.272;18.558;2023-04-09T08:13:04;101988.03;;;10.92;62.21
68807;BME280;55800;54.272;18.558;2023-04-09T08:15:33;101986.13;;;10.97;62.56
68807;BME280;55800;54.272;18.558;2023-04-09T08:18:04;101990.38;;;11.08;62.65
68807;BME280;55800;54.272;18.558;2023-04-09T08:20:34;101980.25;;;11.20;62.50
68807;BME280;55800;54.272;18.558;2023-04-09T08:23:03;101976.47;;;11.30;62.23
68807;BME280;55800;54.272;18.558;2023-04-09T08:25:33;101985.97;;;11.43;61.99
68807;BME280;55800;54.272;18.558;2023-04-09T08:28:02;101982.06;;;11.56;62.19
68807;BME280;55800;54.272;18.558;2023-04-09T08:30:31;101984.41;;;11.71;61.75
68807;BME280;55800;54.272;18.558;2023-04-09T08:33:02;101977.78;;;11.86;61.49
68807;BME280;55800;54.272;18.558;2023-04-09T08:35:32;101975.66;;;12.00;61.48
68807;BME280;55800;54.272;18.558;2023-04-09T08:38:01;101977.88;;;12.17;61.60
68807;BME280;55800;54.272;18.558;2023-04-09T08:40:34;101976.53;;;12.33;60.76
68807;BME280;55800;54.272;18.558;2023-04-09T08:43:04;101974.50;;;12.42;60.09
68807;BME280;55800;54.272;18.558;2023-04-09T08:45:34;101981.16;;;12.59;61.36
68807;BME280;55800;54.272;18.558;2023-04-09T08:48:09;101984.25;;;12.76;61.00
68807;BME280;55800;54.272;18.558;2023-04-09T08:50:39;101983.94;;;12.86;59.92
68807;BME280;55800;54.272;18.558;2023-04-09T08:53:08;101987.13;;;12.99;61.02
68807;BME280;55800;54.272;18.558;2023-04-09T08:55:38;101985.88;;;13.12;60.61
68807;BME280;55800;54.272;18.558;2023-04-09T08:58:08;101983.69;;;13.24;61.34
68807;BME280;55800;54.272;18.558;2023-04-09T09:00:38;101989.41;;;13.42;61.23
68807;BME280;55800;54.272;18.558;2023-04-09T09:03:10;101981.91;;;13.51;59.81
68807;BME280;55800;54.272;18.558;2023-04-09T09:05:43;101988.66;;;13.64;60.70
68807;BME280;55800;54.272;18.558;2023-04-09T09:08:13;101983.72;;;13.78;60.56
68807;BME280;55800;54.272;18.558;2023-04-09T09:10:51;101986.75;;;13.94;60.57
68807;BME280;55800;54.272;18.558;2023-04-09T09:13:21;101986.22;;;14.09;59.96
68807;BME280;55800;54.272;18.558;2023-04-09T09:15:53;101987.63;;;14.21;59.32
68807;BME280;55800;54.272;18.558;2023-04-09T09:18:41;101996.06;;;14.36;59.65
68807;BME280;55800;54.272;18.558;2023-04-09T09:21:12;101988.56;;;14.44;59.28
68807;BME280;55800;54.272;18.558;2023-04-09T09:23:42;101992.59;;;14.57;59.87
68807;BME280;55800;54.272;18.558;2023-04-09T09:26:13;102000.44;;;14.63;58.98
68807;BME280;55800;54.272;18.558;2023-04-09T09:28:44;101992.34;;;14.63;57.37
68807;BME280;55800;54.272;18.558;2023-04-09T09:31:16;101991.59;;;14.60;57.55
68807;BME280;55800;54.272;18.558;2023-04-09T09:33:48;102003.09;;;14.65;58.31
68807;BME280;55800;54.272;18.558;2023-04-09T09:36:32;101990.56;;;14.64;58.01
68807;BME280;55800;54.272;18.558;2023-04-09T09:39:02;102002.19;;;14.64;58.12
68807;BME280;55800;54.272;18.558;2023-04-09T09:41:37;101993.47;;;14.58;57.06
68807;BME280;55800;54.272;18.558;2023-04-09T09:44:08;101998.25;;;14.50;57.58
68807;BME280;55800;54.272;18.558;2023-04-09T09:46:40;101996.63;;;14.46;58.11
68807;BME280;55800;54.272;18.558;2023-04-09T09:49:11;102001.94;;;14.47;58.63
68807;BME280;55800;54.272;18.558;2023-04-09T09:51:41;101994.91;;;14.43;57.95
68807;BME280;55800;54.272;18.558;2023-04-09T09:54:11;101996.13;;;14.35;57.63
68807;BME280;55800;54.272;18.558;2023-04-09T09:56:43;101993.53;;;14.32;58.54
68807;BME280;55800;54.272;18.558;2023-04-09T09:59:18;101988.31;;;14.26;57.88
68807;BME280;55800;54.272;18.558;2023-04-09T10:02:11;101998.63;;;14.13;56.68
68807;BME280;55800;54.272;18.558;2023-04-09T10:04:45;101996.09;;;14.08;57.13
68807;BME280;55800;54.272;18.558;2023-04-09T10:07:17;101981.81;;;14.06;57.63
68807;BME280;55800;54.272;18.558;2023-04-09T10:09:49;102004.44;;;14.01;58.01
68807;BME280;55800;54.272;18.558;2023-04-09T10:12:21;102007.13;;;14.01;57.50
68807;BME280;55800;54.272;18.558;2023-04-09T10:14:55;101995.56;;;13.99;56.97
68807;BME280;55800;54.272;18.558;2023-04-09T10:17:24;101998.25;;;13.99;57.37
68807;BME280;55800;54.272;18.558;2023-04-09T10:20:00;101993.09;;;13.91;56.72
68807;BME280;55800;54.272;18.558;2023-04-09T10:22:34;101991.06;;;13.99;57.49
68807;BME280;55800;54.272;18.558;2023-04-09T10:25:05;101986.50;;;14.01;57.23
68807;BME280;55800;54.272;18.558;2023-04-09T10:27:36;101990.06;;;14.02;56.23
68807;BME280;55800;54.272;18.558;2023-04-09T10:30:05;101994.44;;;14.04;56.34
68807;BME280;55800;54.272;18.558;2023-04-09T10:32:37;101992.59;;;14.06;56.40
68807;BME280;55800;54.272;18.558;2023-04-09T10:35:09;101991.56;;;14.10;57.11
68807;BME280;55800;54.272;18.558;2023-04-09T10:37:47;101996.94;;;14.10;55.46
68807;BME280;55800;54.272;18.558;2023-04-09T10:40:18;101996.06;;;14.10;56.25
68807;BME280;55800;54.272;18.558;2023-04-09T10:42:49;101994.25;;;14.10;56.11
68807;BME280;55800;54.272;18.558;2023-04-09T10:45:20;101997.88;;;14.09;56.34
68807;BME280;55800;54.272;18.558;2023-04-09T10:47:50;101995.13;;;14.11;55.65
68807;BME280;55800;54.272;18.558;2023-04-09T10:50:24;101998.63;;;14.13;56.86
68807;BME280;55800;54.272;18.558;2023-04-09T10:52:56;101994.03;;;14.17;56.95
68807;BME280;55800;54.272;18.558;2023-04-09T10:55:33;101994.91;;;14.17;56.23
68807;BME280;55800;54.272;18.558;2023-04-09T10:58:04;102000.25;;;14.19;55.37
68807;BME280;55800;54.272;18.558;2023-04-09T11:00:40;101997.44;;;14.22;56.92
68807;BME280;55800;54.272;18.558;2023-04-09T11:03:19;102002.72;;;14.25;55.96
68807;BME280;55800;54.272;18.558;2023-04-09T11:05:57;102003.56;;;14.25;55.13
68807;BME280;55800;54.272;18.558;2023-04-09T11:08:28;101992.06;;;14.22;55.85
68807;BME280;55800;54.272;18.558;2023-04-09T11:10:59;102006.47;;;14.21;55.43
68807;BME280;55800;54.272;18.558;2023-04-09T11:13:30;102003.66;;;14.24;55.23
68807;BME280;55800;54.272;18.558;2023-04-09T11:15:59;102006.97;;;14.32;56.56
68807;BME280;55800;54.272;18.558;2023-04-09T11:18:31;102004.34;;;14.30;54.85
68807;BME280;55800;54.272;18.558;2023-04-09T11:21:05;102007.91;;;14.31;54.46
68807;BME280;55800;54.272;18.558;2023-04-09T11:23:37;102006.81;;;14.36;54.58
68807;BME280;55800;54.272;18.558;2023-04-09T11:26:08;102010.16;;;14.43;54.92
68807;BME280;55800;54.272;18.558;2023-04-09T11:28:42;102000.34;;;14.42;53.81
68807;BME280;55800;54.272;18.558;2023-04-09T11:31:11;102001.78;;;14.52;55.12
68807;BME280;55800;54.272;18.558;2023-04-09T11:33:44;101998.75;;;14.61;54.54
68807;BME280;55800;54.272;18.558;2023-04-09T11:36:15;101995.84;;;14.67;54.85
68807;BME280;55800;54.272;18.558;2023-04-09T11:38:47;101994.72;;;14.72;54.82
68807;BME280;55800;54.272;18.558;2023-04-09T11:41:17;101995.28;;;14.82;54.29
68807;BME280;55800;54.272;18.558;2023-04-09T11:43:50;102003.03;;;14.90;54.49
68807;BME280;55800;54.272;18.558;2023-04-09T11:46:19;102006.56;;;14.92;54.62
68807;BME280;55800;54.272;18.558;2023-04-09T11:48:53;102003.59;;;14.99;54.46
68807;BME280;55800;54.272;18.558;2023-04-09T11:51:25;101999.69;;;15.06;55.08
68807;BME280;55800;54.272;18.558;2023-04-09T11:53:56;102015.63;;;15.12;54.91
68807;BME280;55800;54.272;18.558;2023-04-09T11:56:29;102005.47;;;15.20;54.52
68807;BME280;55800;54.272;18.558;2023-04-09T11:58:59;102004.41;;;15.24;52.26
68807;BME280;55800;54.272;18.558;2023-04-09T12:01:31;102008.66;;;15.30;54.67
68807;BME280;55800;54.272;18.558;2023-04-09T12:04:00;102004.00;;;15.33;52.86
68807;BME280;55800;54.272;18.558;2023-04-09T12:06:32;102003.91;;;15.36;53.01
68807;BME280;55800;54.272;18.558;2023-04-09T12:09:01;102014.44;;;15.42;52.64
68807;BME280;55800;54.272;18.558;2023-04-09T12:11:31;102017.00;;;15.47;52.30
68807;BME280;55800;54.272;18.558;2023-04-09T12:14:02;102010.72;;;15.46;53.59
68807;BME280;55800;54.272;18.558;2023-04-09T12:16:33;102014.38;;;15.45;53.31
68807;BME280;55800;54.272;18.558;2023-04-09T12:19:03;102007.09;;;15.47;54.19
68807;BME280;55800;54.272;18.558;2023-04-09T12:21:48;102001.56;;;15.50;52.00
68807;BME280;55800;54.272;18.558;2023-04-09T12:24:21;102006.13;;;15.48;51.33
68807;BME280;55800;54.272;18.558;2023-04-09T12:26:51;102006.19;;;15.47;52.96
68807;BME280;55800;54.272;18.558;2023-04-09T12:29:20;102007.09;;;15.47;54.27
68807;BME280;55800;54.272;18.558;2023-04-09T12:31:51;102006.72;;;15.56;53.48
68807;BME280;55800;54.272;18.558;2023-04-09T12:34:22;102008.28;;;15.62;51.92
68807;BME280;55800;54.272;18.558;2023-04-09T12:36:52;102002.72;;;15.67;52.93
68807;BME280;55800;54.272;18.558;2023-04-09T12:39:22;101997.16;;;15.70;52.63
68807;BME280;55800;54.272;18.558;2023-04-09T12:41:51;102004.06;;;15.77;53.46
68807;BME280;55800;54.272;18.558;2023-04-09T12:44:21;102001.31;;;15.78;52.20
68807;BME280;55800;54.272;18.558;2023-04-09T12:46:50;102006.88;;;15.74;53.13
68807;BME280;55800;54.272;18.558;2023-04-09T12:49:20;102003.91;;;15.81;52.42
68807;BME280;55800;54.272;18.558;2023-04-09T12:51:49;102002.94;;;15.82;53.25
68807;BME280;55800;54.272;18.558;2023-04-09T12:54:20;102009.84;;;15.89;53.51
68807;BME280;55800;54.272;18.558;2023-04-09T12:56:49;102004.34;;;15.92;53.56
68807;BME280;55800;54.272;18.558;2023-04-09T12:59:19;101999.47;;;16.00;54.14
68807;BME280;55800;54.272;18.558;2023-04-09T13:01:49;101999.56;;;15.99;53.02
68807;BME280;55800;54.272;18.558;2023-04-09T13:04:19;102007.44;;;16.03;53.57
68807;BME280;55800;54.272;18.558;2023-04-09T13:06:49;102004.72;;;16.03;51.86
68807;BME280;55800;54.272;18.558;2023-04-09T13:09:20;101995.72;;;16.04;51.93